createdAt,value
2022-08-03T00:01:39.412Z,1.17
2022-08-03T00:04:07.867Z,3.85
2022-08-03T00:06:37.308Z,3.05
2022-08-03T00:09:05.702Z,2.60
2022-08-03T00:11:33.226Z,2.38
2022-08-03T00:14:00.788Z,2.83
2022-08-03T00:16:27.974Z,2.88
2022-08-03T00:18:55.158Z,23.50
2022-08-03T00:21:22.379Z,3.58
2022-08-03T00:23:52.121Z,3.33
2022-08-03T00:26:21.381Z,8.98
2022-08-03T00:28:49.732Z,4.20
2022-08-03T00:31:27.786Z,5.80
2022-08-03T00:34:04.207Z,12.80
2022-08-03T00:36:31.495Z,3.30
2022-08-03T00:38:58.602Z,5.60
2022-08-03T00:41:25.777Z,2.53
2022-08-03T00:43:52.850Z,3.05
2022-08-03T00:46:22.112Z,6.32
2022-08-03T00:48:52.609Z,12.82
2022-08-03T00:51:23.434Z,3.00
2022-08-03T00:53:50.945Z,9.73
2022-08-03T00:56:18.536Z,5.30
2022-08-03T00:58:46.768Z,7.85
2022-08-03T01:01:15.112Z,7.13
2022-08-03T01:03:42.921Z,4.93
2022-08-03T01:06:22.210Z,8.27
2022-08-03T01:09:02.888Z,3.50
2022-08-03T01:12:09.254Z,8.73
2022-08-03T01:15:04.377Z,5.80
2022-08-03T01:17:43.780Z,6.72
2022-08-03T01:20:16.333Z,6.85
2022-08-03T01:23:24.271Z,1.90
2022-08-03T01:26:41.998Z,1.35
2022-08-03T01:29:26.997Z,3.80
2022-08-03T01:33:00.339Z,1.25
2022-08-03T01:35:13.176Z,2.08
2022-08-03T01:38:21.844Z,1.90
2022-08-03T01:40:53.367Z,5.30
2022-08-03T01:44:27.652Z,1.60
2022-08-03T01:46:20.061Z,1.52
2022-08-03T01:48:48.999Z,1.95
2022-08-03T01:51:19.448Z,2.42
2022-08-03T01:53:50.591Z,3.70
2022-08-03T01:56:19.685Z,5.10
2022-08-03T01:58:49.115Z,3.55
2022-08-03T02:01:18.264Z,1.88
2022-08-03T02:03:59.917Z,2.83
2022-08-03T02:07:02.305Z,1.52
2022-08-03T02:09:22.974Z,1.98
2022-08-03T02:11:51.650Z,5.57
2022-08-03T02:14:20.688Z,5.65
2022-08-03T02:16:49.867Z,4.47
2022-08-03T02:19:18.916Z,4.28
2022-08-03T02:21:56.746Z,1.95
2022-08-03T02:24:29.480Z,5.47
2022-08-03T02:26:58.184Z,3.05
2022-08-03T02:32:16.783Z,4.65
2022-08-03T02:34:48.357Z,9.73
2022-08-03T02:37:19.165Z,8.45
2022-08-03T02:39:48.566Z,14.85
2022-08-03T02:42:20.098Z,5.32
2022-08-03T02:44:50.960Z,4.88
2022-08-03T02:49:52.132Z,7.88
2022-08-03T02:52:26.244Z,3.75
2022-08-03T02:54:59.406Z,3.20
2022-08-03T02:57:30.892Z,5.88
2022-08-03T03:00:00.962Z,3.47
2022-08-03T03:02:29.471Z,1.92
2022-08-03T03:05:01.359Z,3.25
2022-08-03T03:07:52.935Z,1.90
2022-08-03T03:10:25.312Z,3.13
2022-08-03T03:12:56.148Z,4.50
2022-08-03T03:15:25.841Z,4.30
2022-08-03T03:17:53.966Z,4.28
2022-08-03T03:20:29.143Z,12.30
2022-08-03T03:23:00.024Z,8.05
2022-08-03T03:25:32.108Z,12.38
2022-08-03T03:28:00.901Z,12.02
2022-08-03T03:30:29.389Z,8.32
2022-08-03T03:32:58.128Z,17.90
2022-08-03T03:37:53.888Z,9.75
2022-08-03T03:40:22.251Z,11.55
2022-08-03T03:42:50.194Z,9.13
2022-08-03T03:45:18.747Z,11.50
2022-08-03T03:47:46.220Z,9.68
2022-08-03T03:50:17.272Z,10.90
2022-08-03T03:52:45.337Z,9.70
2022-08-03T03:55:17.211Z,24.45
2022-08-03T03:57:44.579Z,10.32
2022-08-03T04:00:13.813Z,18.02
2022-08-03T04:02:41.251Z,7.60
2022-08-03T04:05:28.027Z,11.75
2022-08-03T04:08:30.192Z,24.20
2022-08-03T04:11:30.437Z,13.85
2022-08-03T04:14:17.557Z,20.33
2022-08-03T04:16:50.468Z,21.83
2022-08-03T04:19:28.492Z,18.77
2022-08-03T04:22:00.543Z,11.50
2022-08-03T04:24:48.005Z,19.05
2022-08-03T04:27:20.616Z,14.60
2022-08-03T04:29:50.829Z,7.03
2022-08-03T04:32:19.662Z,10.40
2022-08-03T04:34:47.077Z,6.47
2022-08-03T04:37:47.188Z,11.60
2022-08-03T04:40:22.845Z,4.82
2022-08-03T04:42:53.069Z,11.60
2022-08-03T04:45:21.565Z,9.85
2022-08-03T04:47:49.803Z,18.10
2022-08-03T04:50:21.365Z,11.93
2022-08-03T04:53:06.452Z,13.38
2022-08-03T04:55:35.908Z,27.27
2022-08-03T04:58:03.915Z,10.73
2022-08-03T05:00:31.175Z,10.68
2022-08-03T05:02:58.560Z,8.68
2022-08-03T05:05:25.832Z,8.10
2022-08-03T05:08:05.402Z,13.05
2022-08-03T05:10:38.435Z,9.50
2022-08-03T05:13:05.806Z,5.60
2022-08-03T05:15:32.958Z,30.33
2022-08-03T05:18:00.069Z,6.05
2022-08-03T05:20:27.828Z,9.25
2022-08-03T05:22:55.001Z,7.72
2022-08-03T05:25:27.315Z,6.10
2022-08-03T05:27:54.593Z,5.93
2022-08-03T05:30:31.392Z,4.80
2022-08-03T05:33:02.830Z,3.80
2022-08-03T05:35:57.956Z,2.65
2022-08-03T05:38:23.850Z,4.25
2022-08-03T05:41:22.475Z,3.53
2022-08-03T05:43:44.904Z,9.40
2022-08-03T05:46:13.202Z,3.70
2022-08-03T05:48:42.108Z,4.88
2022-08-03T05:51:13.179Z,6.35
2022-08-03T05:53:42.078Z,14.50
2022-08-03T05:56:14.639Z,6.45
2022-08-03T05:58:45.313Z,5.95
2022-08-03T06:01:12.713Z,8.93
2022-08-03T06:06:07.113Z,2.90
2022-08-03T06:08:34.623Z,6.65
2022-08-03T06:11:01.920Z,7.65
2022-08-03T06:13:29.065Z,5.70
2022-08-03T06:15:56.194Z,5.97
2022-08-03T06:18:26.286Z,4.22
2022-08-03T06:20:53.658Z,10.20
2022-08-03T06:23:23.330Z,8.82
2022-08-03T06:26:09.893Z,5.25
2022-08-03T06:28:52.690Z,5.22
2022-08-03T06:31:25.258Z,5.43
2022-08-03T06:34:32.325Z,2.10
2022-08-03T06:36:39.749Z,9.33
2022-08-03T06:39:08.120Z,4.30
2022-08-03T06:41:37.637Z,3.45
2022-08-03T06:44:08.777Z,2.88
2022-08-03T06:46:37.497Z,0.80
2022-08-03T06:49:04.706Z,1.30
2022-08-03T06:52:03.717Z,12.02
2022-08-03T06:54:21.571Z,3.45
2022-08-03T06:56:48.712Z,0.82
2022-08-03T07:00:06.363Z,2.78
2022-08-03T07:02:03.213Z,0.70
2022-08-03T07:04:30.448Z,5.05
2022-08-03T07:06:57.952Z,0.95
2022-08-03T07:09:26.110Z,0.90
2022-08-03T07:11:54.432Z,2.50
2022-08-03T07:14:21.685Z,2.38
2022-08-03T07:16:48.927Z,0.57
2022-08-03T07:19:16.120Z,1.55
2022-08-03T07:21:43.237Z,1.17
2022-08-03T07:24:10.379Z,0.63
2022-08-03T07:26:37.611Z,4.70
2022-08-03T07:29:14.908Z,3.27
2022-08-03T07:34:09.681Z,2.13
2022-08-03T07:36:37.177Z,1.33
2022-08-03T07:39:15.835Z,1.13
2022-08-03T07:41:46.144Z,0.73
2022-08-03T07:44:13.932Z,2.00
2022-08-03T07:46:41.155Z,1.92
2022-08-03T07:49:08.370Z,2.77
2022-08-03T07:51:35.654Z,2.60
2022-08-03T07:54:03.171Z,5.20
2022-08-03T07:56:30.853Z,6.00
2022-08-03T07:58:59.157Z,5.10
2022-08-03T08:03:53.810Z,2.17
2022-08-03T08:06:21.514Z,3.00
2022-08-03T08:08:48.641Z,1.75
2022-08-03T08:11:15.891Z,3.97
2022-08-03T08:13:43.238Z,1.30
2022-08-03T08:16:10.930Z,3.50
2022-08-03T08:18:38.018Z,2.33
2022-08-03T08:21:05.234Z,2.17
2022-08-03T08:23:42.108Z,1.70
2022-08-03T08:26:12.161Z,2.92
2022-08-03T08:28:39.460Z,1.25
2022-08-03T08:31:07.249Z,2.53
2022-08-03T08:34:03.058Z,6.63
2022-08-03T08:36:23.490Z,1.33
2022-08-03T08:38:50.730Z,1.77
2022-08-03T08:41:18.011Z,2.42
2022-08-03T08:43:45.228Z,5.22
2022-08-03T08:46:23.212Z,1.35
2022-08-03T08:48:54.124Z,2.58
2022-08-03T08:51:23.371Z,2.00
2022-08-03T08:54:12.232Z,6.43
2022-08-03T08:56:39.557Z,2.00
2022-08-03T08:59:07.100Z,5.20
2022-08-03T09:01:34.381Z,1.37
2022-08-03T09:04:05.452Z,3.20
2022-08-03T09:06:32.763Z,1.83
2022-08-03T09:08:59.944Z,1.60
2022-08-03T09:11:51.483Z,1.85
2022-08-03T09:14:37.071Z,2.65
2022-08-03T09:17:03.734Z,1.42
2022-08-03T09:19:33.143Z,2.78
2022-08-03T09:22:17.644Z,2.92
2022-08-03T09:25:23.185Z,1.60
2022-08-03T09:27:51.457Z,2.05
2022-08-03T09:30:33.412Z,3.17
2022-08-03T09:33:08.354Z,1.30
2022-08-03T09:35:59.993Z,1.80
2022-08-03T09:38:27.264Z,3.13
2022-08-03T09:40:59.460Z,4.57
2022-08-03T09:43:28.163Z,1.58
2022-08-03T09:46:06.732Z,2.35
2022-08-03T09:48:36.160Z,1.58
2022-08-03T09:51:14.295Z,14.20
2022-08-03T09:53:57.054Z,4.13
2022-08-03T09:56:44.245Z,8.05
2022-08-03T09:59:22.074Z,1.02
2022-08-03T10:01:49.886Z,2.15
2022-08-03T10:04:17.257Z,2.47
2022-08-03T10:07:00.538Z,1.07
2022-08-03T10:09:27.629Z,1.48
2022-08-03T10:11:55.305Z,2.00
2022-08-03T10:14:22.937Z,3.15
2022-08-03T10:16:50.162Z,6.00
2022-08-03T10:19:17.585Z,1.15
2022-08-03T10:21:56.455Z,9.53
2022-08-03T10:24:28.916Z,1.40
2022-08-03T10:27:10.788Z,2.80
2022-08-03T10:29:42.624Z,1.30
2022-08-03T10:32:40.376Z,1.30
2022-08-03T10:35:19.730Z,3.58
2022-08-03T10:38:18.800Z,1.20
2022-08-03T10:40:49.473Z,2.05
2022-08-03T10:43:27.168Z,1.05
2022-08-03T10:45:56.237Z,3.42
2022-08-03T10:48:24.257Z,1.30
2022-08-03T10:50:51.798Z,2.13
2022-08-03T10:53:39.786Z,2.38
2022-08-03T10:59:39.103Z,2.60
2022-08-03T11:02:09.259Z,3.45
2022-08-03T11:04:36.449Z,3.03
2022-08-03T11:07:24.162Z,3.40
2022-08-03T11:09:54.483Z,1.88
2022-08-03T11:12:31.766Z,1.85
2022-08-03T11:15:07.323Z,1.13
2022-08-03T11:17:46.679Z,3.42
2022-08-03T11:21:06.419Z,3.40
2022-08-03T11:24:04.128Z,4.00
2022-08-03T11:26:29.672Z,3.80
2022-08-03T11:29:30.120Z,2.70
2022-08-03T11:31:57.742Z,2.50
2022-08-03T11:34:25.450Z,2.00
2022-08-03T11:37:27.487Z,1.20
2022-08-03T11:39:57.380Z,2.22
2022-08-03T11:42:25.051Z,1.48
2022-08-03T11:44:54.052Z,1.90
2022-08-03T11:47:23.682Z,1.45
2022-08-03T11:49:54.518Z,2.33
2022-08-03T11:52:27.205Z,2.42
2022-08-03T11:54:56.768Z,4.38
2022-08-03T11:59:01.263Z,0.80
2022-08-03T12:00:30.349Z,3.33
2022-08-03T12:03:13.632Z,1.75
2022-08-03T12:05:52.988Z,5.75
2022-08-03T12:08:26.325Z,1.85
2022-08-03T12:10:56.053Z,1.27
2022-08-03T12:14:27.078Z,1.45
2022-08-03T12:16:24.826Z,0.70
2022-08-03T12:19:00.814Z,3.00
2022-08-03T12:21:29.242Z,1.95
2022-08-03T12:24:03.445Z,1.05
2022-08-03T12:26:59.017Z,1.58
2022-08-03T12:29:28.168Z,4.72
2022-08-03T12:34:23.437Z,2.60
2022-08-03T12:36:53.818Z,1.55
2022-08-03T12:39:27.282Z,1.00
2022-08-03T12:41:56.169Z,1.23
2022-08-03T12:44:32.017Z,3.08
2022-08-03T12:47:00.730Z,2.88
2022-08-03T12:49:30.477Z,10.52
2022-08-03T12:52:03.916Z,2.38
2022-08-03T12:54:35.402Z,2.05
2022-08-03T12:57:16.079Z,4.47
2022-08-03T12:59:53.076Z,5.45
2022-08-03T13:02:23.762Z,1.15
2022-08-03T13:04:53.788Z,0.80
2022-08-03T13:07:22.197Z,0.55
2022-08-03T13:09:56.745Z,0.70
2022-08-03T13:12:26.425Z,2.30
2022-08-03T13:14:57.763Z,2.97
2022-08-03T13:17:25.692Z,4.45
2022-08-03T13:19:53.293Z,0.85
2022-08-03T13:22:24.032Z,3.72
2022-08-03T13:24:57.004Z,0.82
2022-08-03T13:28:03.156Z,0.77
2022-08-03T13:30:13.193Z,0.70
2022-08-03T13:32:40.807Z,1.42
2022-08-03T13:35:09.710Z,7.45
2022-08-03T13:37:37.707Z,2.75
2022-08-03T13:40:07.986Z,0.93
2022-08-03T13:42:39.091Z,6.53
2022-08-03T13:45:08.157Z,0.57
2022-08-03T13:47:36.272Z,0.80
2022-08-03T13:52:35.310Z,4.90
2022-08-03T13:55:05.913Z,2.17
2022-08-03T13:58:05.171Z,1.40
2022-08-03T14:00:27.226Z,6.68
2022-08-03T14:03:03.986Z,3.60
2022-08-03T14:05:33.402Z,3.85
2022-08-03T14:08:04.532Z,2.35
2022-08-03T14:10:40.160Z,1.92
2022-08-03T14:13:08.252Z,1.40
2022-08-03T14:15:37.758Z,0.90
2022-08-03T14:18:12.831Z,1.42
2022-08-03T14:20:48.966Z,1.67
2022-08-03T14:23:17.916Z,5.47
2022-08-03T14:25:52.425Z,2.55
2022-08-03T14:28:22.649Z,1.63
2022-08-03T14:30:51.809Z,2.22
2022-08-03T14:33:19.741Z,4.15
2022-08-03T14:35:47.511Z,5.78
2022-08-03T14:38:15.753Z,4.25
2022-08-03T14:43:12.193Z,2.53
2022-08-03T14:45:40.694Z,4.45
2022-08-03T14:50:30.562Z,1.17
2022-08-03T14:50:56.016Z,7.43
2022-08-03T14:55:52.195Z,2.03
2022-08-03T14:58:22.086Z,1.45
2022-08-03T15:00:51.582Z,1.17
2022-08-03T15:03:22.767Z,0.70
2022-08-03T15:05:52.468Z,2.55
2022-08-03T15:08:20.345Z,3.95
2022-08-03T15:10:50.705Z,2.53
2022-08-03T15:13:19.088Z,4.05
2022-08-03T15:15:48.951Z,3.28
2022-08-03T15:18:16.153Z,0.82
2022-08-03T15:20:45.443Z,5.38
2022-08-03T15:23:14.682Z,2.50
2022-08-03T15:26:29.209Z,1.35
2022-08-03T15:28:33.453Z,1.08
2022-08-03T15:31:01.172Z,1.67
2022-08-03T15:33:29.777Z,0.55
2022-08-03T15:35:59.376Z,2.05
2022-08-03T15:38:26.568Z,1.05
2022-08-03T15:40:54.797Z,0.77
2022-08-03T15:43:23.180Z,0.80
2022-08-03T15:46:12.827Z,2.53
2022-08-03T15:48:38.933Z,0.80
2022-08-03T15:51:07.641Z,1.35
2022-08-03T15:53:35.584Z,3.03
2022-08-03T15:56:08.029Z,1.58
2022-08-03T15:59:04.664Z,2.60
2022-08-03T16:01:26.352Z,1.00
2022-08-03T16:03:53.580Z,2.00
2022-08-03T16:06:29.603Z,1.83
2022-08-03T16:09:23.664Z,0.93
2022-08-03T16:11:55.006Z,1.52
2022-08-03T16:14:32.020Z,9.00
2022-08-03T16:17:00.617Z,1.42
2022-08-03T16:19:28.025Z,1.25
2022-08-03T16:21:55.182Z,1.83
2022-08-03T16:24:27.878Z,2.00
2022-08-03T16:26:56.368Z,1.88
2022-08-03T16:29:24.036Z,2.92
2022-08-03T16:31:52.439Z,2.78
2022-08-03T16:34:20.612Z,1.60
2022-08-03T16:36:47.859Z,1.20
2022-08-03T16:39:15.180Z,1.38
2022-08-03T16:41:54.475Z,1.33
2022-08-03T16:44:30.429Z,1.50
2022-08-03T16:46:58.858Z,2.25
2022-08-03T16:49:54.628Z,1.77
2022-08-03T16:52:13.976Z,2.88
2022-08-03T16:54:44.614Z,1.02
2022-08-03T16:57:56.779Z,1.55
2022-08-03T17:00:34.235Z,1.88
2022-08-03T17:03:04.379Z,2.08
2022-08-03T17:05:43.705Z,4.43
2022-08-03T17:08:15.421Z,6.03
2022-08-03T17:10:55.731Z,2.20
2022-08-03T17:13:40.019Z,1.48
2022-08-03T17:16:09.803Z,1.15
2022-08-03T17:18:54.702Z,3.97
2022-08-03T17:21:29.336Z,2.55
2022-08-03T17:24:27.429Z,2.38
2022-08-03T17:26:55.192Z,3.10
2022-08-03T17:29:25.274Z,2.97
2022-08-03T17:31:57.028Z,2.17
2022-08-03T17:34:26.544Z,6.85
2022-08-03T17:37:04.227Z,1.92
2022-08-03T17:42:30.466Z,1.40
2022-08-03T17:45:02.577Z,0.73
2022-08-03T17:53:15.467Z,3.50
2022-08-03T17:56:44.700Z,1.50
2022-08-03T17:59:51.313Z,2.92
2022-08-03T18:03:11.814Z,3.65
2022-08-03T18:06:12.763Z,4.60
2022-08-03T18:08:55.255Z,3.75
2022-08-03T18:11:35.699Z,4.97
2022-08-03T18:14:23.910Z,5.57
2022-08-03T18:17:15.137Z,0.70
2022-08-03T18:20:02.836Z,4.57
2022-08-03T18:22:33.697Z,3.03
2022-08-03T18:25:07.884Z,2.10
2022-08-03T18:27:42.538Z,2.70
2022-08-03T18:30:14.763Z,1.67
2022-08-03T18:32:43.394Z,1.88
2022-08-03T18:35:52.885Z,1.63
2022-08-03T18:38:18.812Z,5.50
2022-08-03T18:40:49.190Z,1.20
2022-08-03T18:43:17.776Z,3.65
2022-08-03T18:45:57.780Z,3.22
2022-08-03T18:48:46.153Z,5.03
2022-08-03T18:54:45.693Z,18.95
2022-08-03T18:57:09.619Z,9.27
2022-08-03T18:59:55.626Z,2.47
2022-08-03T19:03:01.217Z,6.10
2022-08-03T19:06:02.256Z,20.35
2022-08-03T19:08:49.526Z,5.75
2022-08-03T19:12:10.980Z,12.18
2022-08-03T19:14:28.752Z,7.97
2022-08-03T19:17:10.529Z,5.80
2022-08-03T19:19:43.917Z,4.47
2022-08-03T19:22:16.056Z,5.15
2022-08-03T19:24:45.661Z,3.83
2022-08-03T19:27:13.464Z,2.75
2022-08-03T19:30:00.457Z,1.58
2022-08-03T19:32:31.576Z,6.32
2022-08-03T19:35:02.728Z,1.63
2022-08-03T19:37:38.689Z,6.70
2022-08-03T19:40:12.380Z,9.80
2022-08-03T19:42:45.774Z,9.68
2022-08-03T19:45:21.262Z,9.88
2022-08-03T19:47:55.970Z,5.78
2022-08-03T19:50:25.751Z,13.02
2022-08-03T19:52:54.722Z,5.35
2022-08-03T19:55:22.316Z,6.13
2022-08-03T19:57:55.191Z,9.03
2022-08-03T20:00:26.654Z,13.38
2022-08-03T20:02:58.240Z,25.25
2022-08-03T20:05:26.500Z,39.70
2022-08-03T20:07:54.428Z,46.38
2022-08-03T20:10:21.679Z,31.17
2022-08-03T20:12:49.278Z,21.05
2022-08-03T20:15:18.108Z,18.00
2022-08-03T20:17:56.950Z,14.32
2022-08-03T20:20:38.341Z,14.07
2022-08-03T20:23:18.694Z,23.73
2022-08-03T20:25:57.139Z,29.35
2022-08-03T20:28:31.141Z,21.05
2022-08-03T20:30:59.801Z,17.30
2022-08-03T20:33:34.602Z,11.20
2022-08-03T20:36:15.905Z,6.50
2022-08-03T20:38:47.075Z,9.82
2022-08-03T20:41:16.212Z,6.97
2022-08-03T20:43:44.140Z,11.27
2022-08-03T20:46:31.132Z,10.70
2022-08-03T20:49:04.009Z,12.13
2022-08-03T20:51:50.697Z,7.25
2022-08-03T20:54:30.810Z,4.95
2022-08-03T20:57:03.601Z,3.03
2022-08-03T20:59:46.874Z,4.45
2022-08-03T21:02:19.780Z,7.10
2022-08-03T21:04:56.844Z,6.00
2022-08-03T21:07:25.267Z,6.15
2022-08-03T21:10:15.814Z,4.47
2022-08-03T21:12:55.172Z,2.20
2022-08-03T21:16:11.813Z,9.90
2022-08-03T21:18:50.150Z,4.35
2022-08-03T21:21:21.488Z,5.55
2022-08-03T21:23:52.253Z,10.68
2022-08-03T21:26:23.023Z,10.68
2022-08-03T21:28:53.856Z,9.18
2022-08-03T21:31:25.719Z,6.18
2022-08-03T21:34:03.289Z,12.40
2022-08-03T21:36:33.969Z,11.65
2022-08-03T21:39:04.991Z,9.27
2022-08-03T21:41:33.479Z,12.00
2022-08-03T21:44:02.038Z,7.30
2022-08-03T21:50:07.264Z,10.90
2022-08-03T21:51:55.543Z,15.65
2022-08-03T21:54:26.527Z,15.63
2022-08-03T21:56:55.418Z,15.55
2022-08-03T21:59:23.823Z,5.15
2022-08-03T22:01:55.414Z,9.10
2022-08-03T22:04:54.987Z,17.60
2022-08-03T22:07:14.997Z,11.63
2022-08-03T22:09:51.014Z,7.47
2022-08-03T22:12:23.075Z,2.47
2022-08-03T22:14:59.964Z,2.10
2022-08-03T22:20:19.070Z,3.08
2022-08-03T22:22:55.261Z,2.70
2022-08-03T22:25:28.107Z,3.38
2022-08-03T22:27:56.176Z,6.53
2022-08-03T22:30:23.346Z,4.60
2022-08-03T22:32:54.274Z,5.03
2022-08-03T22:35:25.737Z,6.38
2022-08-03T22:37:56.619Z,5.15
2022-08-03T22:40:24.328Z,8.43
2022-08-03T22:42:52.779Z,2.55
2022-08-03T22:46:07.189Z,8.80
2022-08-03T22:48:07.884Z,7.10
2022-08-03T22:50:35.304Z,7.10
2022-08-03T22:53:02.797Z,5.72
2022-08-03T22:55:30.443Z,4.75
2022-08-03T22:57:57.603Z,9.52
2022-08-03T23:00:25.284Z,8.30
2022-08-03T23:02:56.172Z,5.93
2022-08-03T23:06:01.866Z,9.45
2022-08-03T23:08:15.977Z,11.27
2022-08-03T23:10:47.066Z,5.45
2022-08-03T23:13:16.896Z,8.23
2022-08-03T23:15:56.273Z,4.40
2022-08-03T23:18:26.426Z,6.90
2022-08-03T23:20:56.867Z,8.00
2022-08-03T23:23:25.473Z,4.15
2022-08-03T23:25:52.605Z,3.95
2022-08-03T23:28:20.866Z,6.78
2022-08-03T23:30:50.665Z,5.88
2022-08-03T23:33:18.415Z,3.70
2022-08-03T23:36:27.786Z,5.10
2022-08-03T23:38:47.780Z,3.42
2022-08-03T23:41:16.950Z,8.75
2022-08-03T23:43:51.966Z,6.40
2022-08-03T23:46:25.248Z,10.30
2022-08-03T23:48:53.644Z,6.43
2022-08-03T23:51:44.159Z,3.97
2022-08-03T23:54:30.361Z,7.97
2022-08-03T23:57:23.875Z,8.40
